createdAt,value
2023-04-30T00:02:14.942Z,33.90
2023-04-30T00:04:43.047Z,34.00
2023-04-30T00:07:12.060Z,33.90
2023-04-30T00:09:40.325Z,32.10
2023-04-30T00:12:08.321Z,33.70
2023-04-30T00:14:37.699Z,33.50
2023-04-30T00:17:05.783Z,33.60
2023-04-30T00:19:33.778Z,33.70
2023-04-30T00:22:02.385Z,33.90
2023-04-30T00:24:30.590Z,33.20
2023-04-30T00:27:00.993Z,33.70
2023-04-30T00:29:29.148Z,33.80
2023-04-30T00:31:58.679Z,33.50
2023-04-30T00:34:26.805Z,33.70
2023-04-30T00:36:54.855Z,33.60
2023-04-30T00:39:22.918Z,33.70
2023-04-30T00:41:50.990Z,33.80
2023-04-30T00:44:19.102Z,33.10
2023-04-30T00:46:47.081Z,33.10
2023-04-30T00:49:16.548Z,34.50
2023-04-30T00:51:45.422Z,33.80
2023-04-30T00:54:14.097Z,32.90
2023-04-30T00:56:42.480Z,33.60
2023-04-30T00:59:11.984Z,33.70
2023-04-30T01:01:40.704Z,33.50
2023-04-30T01:04:08.768Z,33.70
2023-04-30T01:06:38.379Z,33.50
2023-04-30T01:09:06.938Z,33.90
2023-04-30T01:11:49.880Z,33.40
2023-04-30T01:14:24.901Z,33.60
2023-04-30T01:17:06.628Z,33.50
2023-04-30T01:19:43.495Z,33.60
2023-04-30T01:22:24.463Z,33.60
2023-04-30T01:25:08.387Z,33.60
2023-04-30T01:28:09.556Z,33.60
2023-04-30T01:30:40.601Z,33.60
2023-04-30T01:33:08.827Z,33.50
2023-04-30T01:36:00.188Z,33.50
2023-04-30T01:38:40.637Z,34.00
2023-04-30T01:41:16.017Z,33.30
2023-04-30T01:43:55.943Z,31.30
2023-04-30T01:46:30.256Z,34.00
2023-04-30T01:49:10.996Z,34.50
2023-04-30T01:51:42.675Z,34.10
2023-04-30T01:54:19.001Z,32.10
2023-04-30T01:56:55.104Z,33.70
2023-04-30T01:59:25.280Z,32.60
2023-04-30T02:01:56.609Z,32.60
2023-04-30T02:04:24.712Z,32.90
2023-04-30T02:06:52.774Z,33.00
2023-04-30T02:09:20.811Z,33.20
2023-04-30T02:11:48.784Z,33.30
2023-04-30T02:14:16.872Z,33.00
2023-04-30T02:16:46.152Z,33.50
2023-04-30T02:19:14.170Z,32.40
2023-04-30T02:21:42.158Z,33.50
2023-04-30T02:24:10.124Z,34.00
2023-04-30T02:26:38.098Z,33.80
2023-04-30T02:29:06.081Z,33.80
2023-04-30T02:31:34.140Z,34.20
2023-04-30T02:34:03.430Z,34.20
2023-04-30T02:36:33.528Z,34.50
2023-04-30T02:39:01.513Z,34.70
2023-04-30T02:41:29.507Z,34.50
2023-04-30T02:43:57.593Z,34.50
2023-04-30T02:46:25.797Z,34.60
2023-04-30T02:48:53.856Z,34.60
2023-04-30T02:51:23.290Z,34.70
2023-04-30T02:53:51.819Z,34.70
2023-04-30T02:56:19.800Z,35.10
2023-04-30T02:58:47.974Z,34.80
2023-04-30T03:01:16.394Z,34.80
2023-04-30T03:03:44.544Z,35.10
2023-04-30T03:06:12.579Z,35.00
2023-04-30T03:08:41.921Z,35.30
2023-04-30T03:11:09.971Z,35.20
2023-04-30T03:13:37.989Z,35.00
2023-04-30T03:16:06.631Z,35.30
2023-04-30T03:18:34.692Z,34.90
2023-04-30T03:21:02.788Z,35.80
2023-04-30T03:23:31.031Z,35.50
2023-04-30T03:26:00.377Z,35.50
2023-04-30T03:28:28.555Z,35.70
2023-04-30T03:30:56.705Z,35.90
2023-04-30T03:33:24.713Z,35.80
2023-04-30T03:35:53.406Z,35.90
2023-04-30T03:38:21.428Z,36.20
2023-04-30T03:40:49.439Z,35.70
2023-04-30T03:43:18.847Z,36.30
2023-04-30T03:45:46.910Z,36.20
2023-04-30T03:48:15.068Z,36.30
2023-04-30T03:50:43.107Z,36.50
2023-04-30T03:53:11.114Z,36.40
2023-04-30T03:55:39.637Z,36.40
2023-04-30T03:58:08.193Z,36.60
2023-04-30T04:00:37.533Z,36.70
2023-04-30T04:03:05.656Z,36.40
2023-04-30T04:05:33.670Z,36.90
2023-04-30T04:08:01.700Z,36.80
2023-04-30T04:10:30.106Z,36.90
2023-04-30T04:12:58.180Z,37.00
2023-04-30T04:15:26.363Z,36.90
2023-04-30T04:17:56.021Z,36.70
2023-04-30T04:20:24.009Z,37.00
2023-04-30T04:22:52.206Z,36.70
2023-04-30T04:25:20.789Z,37.00
2023-04-30T04:27:48.866Z,37.10
2023-04-30T04:30:16.933Z,36.50
2023-04-30T04:32:48.277Z,37.20
2023-04-30T04:35:18.907Z,37.00
2023-04-30T04:37:46.957Z,37.40
2023-04-30T04:40:15.015Z,37.10
2023-04-30T04:42:43.335Z,37.30
2023-04-30T04:45:12.102Z,37.40
2023-04-30T04:47:40.311Z,37.40
2023-04-30T04:50:09.651Z,37.20
2023-04-30T04:52:39.116Z,37.40
2023-04-30T04:55:08.530Z,37.30
2023-04-30T04:57:36.589Z,37.40
2023-04-30T05:00:06.697Z,37.50
2023-04-30T05:02:34.905Z,37.60
2023-04-30T05:05:03.041Z,37.40
2023-04-30T05:07:31.135Z,37.60
2023-04-30T05:10:00.773Z,37.70
2023-04-30T05:12:29.011Z,37.90
2023-04-30T05:14:57.057Z,37.80
2023-04-30T05:17:25.436Z,37.60
2023-04-30T05:19:54.628Z,37.70
2023-04-30T05:22:23.062Z,37.70
2023-04-30T05:24:53.030Z,38.00
2023-04-30T05:27:22.379Z,37.60
2023-04-30T05:29:50.373Z,37.90
2023-04-30T05:32:18.302Z,37.80
2023-04-30T05:34:46.411Z,37.80
2023-04-30T05:37:14.931Z,37.50
2023-04-30T05:39:42.941Z,37.80
2023-04-30T05:42:10.981Z,37.60
2023-04-30T05:44:41.008Z,37.00
2023-04-30T05:47:09.144Z,37.10
2023-04-30T05:49:37.250Z,37.40
2023-04-30T05:52:05.761Z,37.50
2023-04-30T05:54:33.904Z,37.90
2023-04-30T05:57:01.966Z,37.20
2023-04-30T05:59:29.950Z,37.10
2023-04-30T06:01:59.352Z,37.40
2023-04-30T06:04:27.411Z,37.20
2023-04-30T06:06:55.436Z,37.40
2023-04-30T06:09:23.403Z,37.00
2023-04-30T06:11:52.002Z,37.00
2023-04-30T06:14:22.529Z,37.10
2023-04-30T06:16:51.230Z,36.20
2023-04-30T06:19:20.933Z,35.70
2023-04-30T06:21:49.006Z,35.40
2023-04-30T06:24:17.154Z,35.20
2023-04-30T06:26:45.124Z,35.10
2023-04-30T06:29:13.193Z,35.00
2023-04-30T06:31:41.269Z,34.50
2023-04-30T06:34:09.292Z,34.00
2023-04-30T06:36:38.614Z,33.70
2023-04-30T06:39:06.589Z,33.30
2023-04-30T06:41:34.703Z,32.90
2023-04-30T06:44:02.710Z,32.70
2023-04-30T06:46:31.002Z,32.10
2023-04-30T06:48:59.001Z,32.00
2023-04-30T06:51:27.493Z,31.60
2023-04-30T06:53:57.066Z,31.40
2023-04-30T06:56:25.167Z,31.20
2023-04-30T06:58:53.166Z,30.90
2023-04-30T07:01:21.462Z,30.10
2023-04-30T07:03:49.705Z,30.20
2023-04-30T07:06:17.926Z,30.00
2023-04-30T07:08:45.955Z,29.60
2023-04-30T07:11:15.460Z,29.80
2023-04-30T07:13:43.440Z,29.40
2023-04-30T07:16:11.705Z,29.50
2023-04-30T07:18:40.795Z,29.10
2023-04-30T07:21:09.236Z,29.00
2023-04-30T07:23:37.238Z,28.20
2023-04-30T07:26:05.637Z,28.60
2023-04-30T07:28:35.076Z,28.50
2023-04-30T07:31:03.152Z,28.30
2023-04-30T07:33:31.372Z,27.90
2023-04-30T07:35:59.347Z,28.10
2023-04-30T07:38:27.737Z,28.50
2023-04-30T07:40:55.773Z,28.40
2023-04-30T07:43:23.924Z,28.40
2023-04-30T07:45:54.296Z,28.30
2023-04-30T07:48:22.305Z,28.40
2023-04-30T07:50:52.128Z,28.30
2023-04-30T07:53:20.937Z,28.30
2023-04-30T07:55:48.908Z,28.40
2023-04-30T07:58:17.176Z,28.20
2023-04-30T08:00:45.487Z,28.20
2023-04-30T08:03:14.937Z,28.10
2023-04-30T08:05:43.017Z,28.50
2023-04-30T08:08:11.103Z,28.30
2023-04-30T08:10:41.808Z,28.70
2023-04-30T08:13:09.920Z,28.80
2023-04-30T08:15:39.997Z,28.60
2023-04-30T08:18:08.026Z,29.10
2023-04-30T08:20:38.642Z,28.50
2023-04-30T08:23:06.826Z,28.70
2023-04-30T08:25:34.983Z,28.80
2023-04-30T08:28:02.980Z,28.90
2023-04-30T08:30:31.022Z,28.70
2023-04-30T08:32:59.258Z,28.70
2023-04-30T08:35:29.597Z,28.50
2023-04-30T08:37:59.052Z,28.80
2023-04-30T08:40:43.472Z,28.70
2023-04-30T08:43:16.509Z,28.80
2023-04-30T08:45:44.653Z,28.80
2023-04-30T08:48:15.587Z,28.90
2023-04-30T08:50:44.028Z,28.90
2023-04-30T08:53:15.692Z,28.80
2023-04-30T08:55:44.134Z,28.70
2023-04-30T08:58:12.075Z,28.50
2023-04-30T09:00:42.798Z,28.50
2023-04-30T09:03:11.078Z,28.00
2023-04-30T09:05:39.193Z,28.00
2023-04-30T09:08:09.033Z,27.80
2023-04-30T09:10:38.959Z,27.70
2023-04-30T09:13:08.943Z,27.70
2023-04-30T09:15:41.684Z,27.50
2023-04-30T09:18:13.105Z,27.20
2023-04-30T09:20:57.460Z,27.00
2023-04-30T09:23:26.296Z,26.50
2023-04-30T09:25:56.502Z,26.70
2023-04-30T09:28:25.331Z,26.20
2023-04-30T09:30:54.340Z,26.30
2023-04-30T09:33:22.416Z,25.90
2023-04-30T09:35:52.644Z,25.40
2023-04-30T09:38:28.827Z,25.00
2023-04-30T09:41:00.392Z,24.70
2023-04-30T09:43:29.012Z,24.70
2023-04-30T09:46:00.605Z,24.60
2023-04-30T09:48:29.421Z,24.20
2023-04-30T09:50:57.640Z,24.00
2023-04-30T09:53:25.686Z,23.90
2023-04-30T09:55:54.503Z,23.70
2023-04-30T09:58:26.413Z,23.80
2023-04-30T10:00:56.618Z,23.20
2023-04-30T10:03:25.085Z,23.20
2023-04-30T10:05:53.904Z,22.90
2023-04-30T10:08:27.770Z,22.80
2023-04-30T10:11:01.446Z,22.70
2023-04-30T10:13:35.908Z,22.70
2023-04-30T10:16:13.455Z,22.60
2023-04-30T10:18:44.162Z,22.10
2023-04-30T10:21:14.492Z,21.80
2023-04-30T10:23:43.630Z,21.40
2023-04-30T10:26:13.165Z,21.30
2023-04-30T10:28:43.555Z,21.50
2023-04-30T10:31:13.078Z,21.30
2023-04-30T10:33:55.733Z,21.60
2023-04-30T10:36:34.117Z,21.00
2023-04-30T10:39:03.569Z,21.10
2023-04-30T10:41:32.835Z,20.80
2023-04-30T10:44:05.124Z,20.80
2023-04-30T10:46:37.088Z,20.80
2023-04-30T10:49:05.417Z,20.70
2023-04-30T10:51:51.649Z,20.70
2023-04-30T10:54:28.570Z,20.60
2023-04-30T10:57:14.292Z,20.30
2023-04-30T10:59:54.092Z,20.50
2023-04-30T11:02:22.663Z,19.90
2023-04-30T11:05:14.377Z,20.10
2023-04-30T11:07:50.516Z,20.00
2023-04-30T11:10:22.694Z,20.00
2023-04-30T11:12:52.391Z,19.80
2023-04-30T11:15:25.701Z,19.50
2023-04-30T11:17:58.367Z,19.80
2023-04-30T11:20:27.445Z,19.60
2023-04-30T11:23:14.111Z,19.20
2023-04-30T11:25:45.600Z,19.80
2023-04-30T11:28:17.601Z,19.90
2023-04-30T11:30:54.553Z,19.60
2023-04-30T11:33:25.915Z,19.80
2023-04-30T11:35:55.994Z,19.90
2023-04-30T11:38:29.127Z,19.80
2023-04-30T11:40:59.029Z,19.70
2023-04-30T11:43:28.542Z,19.90
2023-04-30T11:46:07.354Z,20.00
2023-04-30T11:48:37.312Z,20.20
2023-04-30T11:51:07.389Z,19.70
2023-04-30T11:53:35.502Z,19.90
2023-04-30T11:56:07.423Z,19.70
2023-04-30T11:58:37.844Z,20.00
2023-04-30T12:01:09.447Z,19.90
2023-04-30T12:03:43.444Z,19.00
2023-04-30T12:06:12.882Z,19.70
2023-04-30T12:08:43.574Z,19.70
2023-04-30T12:11:25.028Z,19.90
2023-04-30T12:13:55.097Z,19.60
2023-04-30T12:16:26.037Z,19.70
2023-04-30T12:18:54.106Z,19.60
2023-04-30T12:21:23.286Z,19.40
2023-04-30T12:23:51.480Z,19.20
2023-04-30T12:26:19.458Z,19.40
2023-04-30T12:28:49.670Z,19.40
2023-04-30T12:31:18.956Z,19.30
2023-04-30T12:33:56.948Z,18.90
2023-04-30T12:36:32.606Z,18.90
2023-04-30T12:39:12.898Z,19.20
2023-04-30T12:41:43.188Z,19.30
2023-04-30T12:44:22.209Z,19.20
2023-04-30T12:46:53.358Z,19.10
2023-04-30T12:49:27.861Z,19.00
2023-04-30T12:52:04.656Z,18.80
2023-04-30T12:54:33.516Z,18.80
2023-04-30T12:57:03.865Z,18.90
2023-04-30T12:59:34.292Z,18.60
2023-04-30T13:02:11.294Z,18.60
2023-04-30T13:04:41.799Z,18.30
2023-04-30T13:07:09.915Z,18.80
2023-04-30T13:09:39.260Z,17.90
2023-04-30T13:12:07.547Z,16.70
2023-04-30T13:14:35.720Z,17.30
2023-04-30T13:17:05.809Z,16.90
2023-04-30T13:19:34.550Z,16.80
2023-04-30T13:22:03.914Z,16.90
2023-04-30T13:24:32.051Z,16.40
2023-04-30T13:27:00.212Z,16.00
2023-04-30T13:29:28.188Z,15.60
2023-04-30T13:31:56.414Z,15.60
2023-04-30T13:34:24.509Z,16.00
2023-04-30T13:36:53.423Z,15.00
2023-04-30T13:39:23.139Z,15.90
2023-04-30T13:41:51.226Z,15.80
2023-04-30T13:44:19.215Z,15.30
2023-04-30T13:46:47.253Z,15.90
2023-04-30T13:49:15.811Z,15.70
2023-04-30T13:51:43.957Z,15.20
2023-04-30T13:54:12.025Z,14.40
2023-04-30T13:56:41.512Z,14.70
2023-04-30T13:59:09.583Z,14.50
2023-04-30T14:01:37.612Z,14.30
2023-04-30T14:04:06.045Z,14.70
2023-04-30T14:06:34.273Z,14.30
2023-04-30T14:09:02.751Z,14.90
2023-04-30T14:11:31.143Z,14.50
2023-04-30T14:14:00.468Z,14.70
2023-04-30T14:16:28.817Z,15.30
2023-04-30T14:18:56.799Z,14.70
2023-04-30T14:21:24.845Z,15.20
2023-04-30T14:23:52.869Z,15.00
2023-04-30T14:26:21.579Z,14.50
2023-04-30T14:28:49.657Z,15.00
2023-04-30T14:31:19.225Z,14.50
2023-04-30T14:33:47.209Z,14.80
2023-04-30T14:36:15.382Z,15.10
2023-04-30T14:38:43.312Z,15.30
2023-04-30T14:41:11.287Z,16.20
2023-04-30T14:43:39.664Z,15.80
2023-04-30T14:46:07.966Z,16.00
2023-04-30T14:48:37.616Z,16.50
2023-04-30T14:51:05.749Z,17.20
2023-04-30T14:53:33.960Z,17.30
2023-04-30T14:56:02.273Z,17.50
2023-04-30T14:58:30.283Z,18.00
2023-04-30T15:00:58.264Z,17.90
2023-04-30T15:03:26.483Z,18.50
2023-04-30T15:05:55.985Z,16.50
2023-04-30T15:08:24.040Z,16.70
2023-04-30T15:10:52.020Z,17.30
2023-04-30T15:13:19.944Z,17.20
2023-04-30T15:15:49.539Z,17.70
2023-04-30T15:18:17.634Z,17.60
2023-04-30T15:20:45.604Z,17.60
2023-04-30T15:23:14.953Z,17.60
2023-04-30T15:25:44.073Z,18.10
2023-04-30T15:28:12.087Z,18.30
2023-04-30T15:30:40.321Z,18.50
2023-04-30T15:33:08.246Z,18.50
2023-04-30T15:35:36.350Z,18.80
2023-04-30T15:38:04.393Z,18.10
2023-04-30T15:40:33.849Z,18.40
2023-04-30T15:43:01.850Z,19.00
2023-04-30T15:45:30.386Z,19.20
2023-04-30T15:47:58.352Z,19.20
2023-04-30T15:50:26.401Z,18.70
2023-04-30T15:52:54.528Z,19.10
2023-04-30T15:55:23.129Z,19.10
2023-04-30T15:57:52.428Z,19.30
2023-04-30T16:00:23.257Z,18.90
2023-04-30T16:02:51.385Z,19.50
2023-04-30T16:05:20.024Z,19.60
2023-04-30T16:07:48.061Z,19.50
2023-04-30T16:10:16.276Z,19.60
2023-04-30T16:12:44.326Z,19.60
2023-04-30T16:15:13.811Z,19.80
2023-04-30T16:17:41.885Z,19.60
2023-04-30T16:20:11.797Z,19.70
2023-04-30T16:22:40.087Z,19.80
2023-04-30T16:25:09.982Z,19.90
2023-04-30T16:27:38.084Z,19.80
2023-04-30T16:30:09.487Z,19.80
2023-04-30T16:32:38.979Z,19.90
2023-04-30T16:35:09.448Z,19.90
2023-04-30T16:37:37.379Z,20.10
2023-04-30T16:40:07.474Z,20.20
2023-04-30T16:42:36.122Z,20.00
2023-04-30T16:45:04.402Z,19.90
2023-04-30T16:47:32.484Z,20.10
2023-04-30T16:50:01.910Z,20.00
2023-04-30T16:52:30.025Z,20.30
2023-04-30T16:54:57.936Z,20.30
2023-04-30T16:57:26.105Z,20.30
2023-04-30T16:59:54.326Z,20.10
2023-04-30T17:02:22.738Z,20.10
2023-04-30T17:04:50.905Z,20.30
2023-04-30T17:07:20.262Z,20.50
2023-04-30T17:09:48.757Z,20.60
2023-04-30T17:12:16.830Z,20.50
2023-04-30T17:14:44.871Z,20.40
2023-04-30T17:17:12.838Z,20.60
2023-04-30T17:19:41.110Z,20.50
2023-04-30T17:22:09.124Z,20.50
2023-04-30T17:24:38.445Z,20.90
2023-04-30T17:27:06.478Z,20.60
2023-04-30T17:29:34.465Z,20.80
2023-04-30T17:32:02.538Z,20.90
2023-04-30T17:34:31.071Z,20.70
2023-04-30T17:36:59.099Z,20.90
2023-04-30T17:39:28.732Z,20.40
2023-04-30T17:41:58.024Z,20.90
2023-04-30T17:44:26.161Z,20.90
2023-04-30T17:46:54.769Z,21.00
2023-04-30T17:49:23.103Z,21.00
2023-04-30T17:51:51.173Z,21.50
2023-04-30T17:54:19.170Z,21.20
2023-04-30T17:56:47.159Z,21.10
2023-04-30T17:59:16.498Z,20.80
2023-04-30T18:01:44.608Z,21.00
2023-04-30T18:04:17.904Z,20.90
2023-04-30T18:06:46.404Z,20.80
2023-04-30T18:09:16.134Z,20.90
2023-04-30T18:11:44.326Z,20.90
2023-04-30T18:14:12.460Z,21.00
2023-04-30T18:16:42.148Z,21.30
2023-04-30T18:19:10.216Z,21.10
2023-04-30T18:21:38.188Z,21.00
2023-04-30T18:24:06.720Z,21.10
2023-04-30T18:26:34.728Z,21.00
2023-04-30T18:29:03.131Z,20.90
2023-04-30T18:31:31.958Z,21.10
2023-04-30T18:34:01.285Z,21.00
2023-04-30T18:36:29.874Z,20.90
2023-04-30T18:38:57.825Z,21.00
2023-04-30T18:41:27.775Z,21.30
2023-04-30T18:43:55.808Z,21.10
2023-04-30T18:46:25.284Z,21.20
2023-04-30T18:48:53.297Z,21.20
2023-04-30T18:51:22.650Z,21.30
2023-04-30T18:53:50.989Z,21.30
2023-04-30T18:56:19.481Z,21.60
2023-04-30T18:58:47.694Z,21.50
2023-04-30T19:01:15.855Z,21.70
2023-04-30T19:03:43.994Z,21.70
2023-04-30T19:06:12.014Z,21.80
2023-04-30T19:08:41.697Z,21.90
2023-04-30T19:11:10.488Z,21.80
2023-04-30T19:13:38.443Z,22.00
2023-04-30T19:16:06.744Z,21.90
2023-04-30T19:18:35.055Z,22.00
2023-04-30T19:21:05.284Z,22.30
2023-04-30T19:23:33.316Z,22.30
2023-04-30T19:26:03.361Z,22.50
2023-04-30T19:28:31.316Z,22.30
2023-04-30T19:30:59.512Z,22.60
2023-04-30T19:33:28.229Z,22.50
2023-04-30T19:35:57.459Z,22.30
2023-04-30T19:38:25.522Z,22.50
2023-04-30T19:40:55.325Z,22.50
2023-04-30T19:43:26.147Z,22.40
2023-04-30T19:45:55.994Z,22.50
2023-04-30T19:48:25.619Z,22.40
2023-04-30T19:50:54.866Z,22.80
2023-04-30T19:53:25.484Z,22.50
2023-04-30T19:55:53.616Z,22.60
2023-04-30T19:58:21.796Z,22.50
2023-04-30T20:00:51.162Z,22.90
2023-04-30T20:03:20.489Z,23.00
2023-04-30T20:05:48.722Z,22.80
2023-04-30T20:08:16.842Z,22.80
2023-04-30T20:10:46.841Z,22.70
2023-04-30T20:13:15.716Z,22.90
2023-04-30T20:15:43.933Z,22.80
2023-04-30T20:18:13.408Z,23.00
2023-04-30T20:20:41.423Z,23.10
2023-04-30T20:23:14.898Z,22.90
2023-04-30T20:25:44.980Z,22.70
2023-04-30T20:28:13.320Z,22.60
2023-04-30T20:30:43.121Z,22.90
2023-04-30T20:33:13.809Z,22.80
2023-04-30T20:35:43.976Z,22.80
2023-04-30T20:38:12.139Z,23.20
2023-04-30T20:40:41.073Z,23.50
2023-04-30T20:43:10.463Z,22.90
2023-04-30T20:45:38.607Z,22.90
2023-04-30T20:48:08.492Z,23.00
2023-04-30T20:50:37.971Z,22.80
2023-04-30T20:53:05.986Z,23.10
2023-04-30T20:55:34.019Z,23.10
2023-04-30T20:58:03.600Z,23.00
2023-04-30T21:00:31.606Z,23.20
2023-04-30T21:02:59.778Z,23.20
2023-04-30T21:05:28.924Z,23.20
2023-04-30T21:08:00.970Z,23.40
2023-04-30T21:10:35.049Z,23.60
2023-04-30T21:13:04.804Z,23.90
2023-04-30T21:15:35.138Z,23.90
2023-04-30T21:18:03.393Z,23.90
2023-04-30T21:20:32.456Z,23.70
2023-04-30T21:23:03.185Z,24.00
2023-04-30T21:25:31.315Z,24.20
2023-04-30T21:27:59.448Z,24.20
2023-04-30T21:30:27.461Z,24.30
2023-04-30T21:32:58.348Z,25.00
2023-04-30T21:35:27.878Z,24.60
2023-04-30T21:37:56.250Z,24.80
2023-04-30T21:40:25.603Z,24.90
2023-04-30T21:42:53.688Z,24.90
2023-04-30T21:45:22.219Z,24.40
2023-04-30T21:47:50.338Z,25.10
2023-04-30T21:50:18.596Z,25.10
2023-04-30T21:52:46.808Z,25.20
2023-04-30T21:55:14.768Z,25.30
2023-04-30T21:57:46.419Z,25.00
2023-04-30T22:00:16.778Z,24.80
2023-04-30T22:02:44.829Z,25.40
2023-04-30T22:05:13.121Z,25.50
2023-04-30T22:07:41.315Z,25.50
2023-04-30T22:10:10.343Z,25.40
2023-04-30T22:12:38.690Z,25.60
2023-04-30T22:15:09.505Z,25.40
2023-04-30T22:17:37.475Z,25.50
2023-04-30T22:20:08.279Z,25.80
2023-04-30T22:22:36.249Z,25.70
2023-04-30T22:25:04.683Z,25.60
2023-04-30T22:27:32.822Z,25.90
2023-04-30T22:30:00.814Z,25.60
2023-04-30T22:32:30.138Z,26.10
2023-04-30T22:34:58.650Z,26.00
2023-04-30T22:37:27.399Z,26.20
2023-04-30T22:39:55.687Z,26.10
2023-04-30T22:42:24.223Z,26.10
2023-04-30T22:44:52.532Z,26.20
2023-04-30T22:47:20.557Z,26.30
2023-04-30T22:49:50.180Z,26.20
2023-04-30T22:52:18.148Z,26.20
2023-04-30T22:54:47.236Z,26.20
2023-04-30T22:57:15.377Z,26.60
2023-04-30T22:59:43.517Z,26.50
2023-04-30T23:02:11.462Z,26.60
2023-04-30T23:04:39.507Z,26.60
2023-04-30T23:07:09.153Z,26.80
2023-04-30T23:09:37.185Z,26.80
2023-04-30T23:12:05.614Z,27.00
2023-04-30T23:14:33.857Z,26.80
2023-04-30T23:17:01.963Z,27.10
2023-04-30T23:19:29.965Z,27.10
2023-04-30T23:21:57.941Z,27.10
2023-04-30T23:24:27.353Z,27.00
2023-04-30T23:26:57.634Z,27.20
2023-04-30T23:29:25.624Z,27.40
2023-04-30T23:31:55.134Z,27.30
2023-04-30T23:34:23.162Z,27.30
2023-04-30T23:36:51.104Z,27.40
2023-04-30T23:39:19.156Z,27.30
2023-04-30T23:41:48.515Z,27.10
2023-04-30T23:44:16.495Z,27.50
2023-04-30T23:46:44.605Z,27.50
2023-04-30T23:49:12.611Z,27.60
2023-04-30T23:51:40.589Z,27.90
2023-04-30T23:54:08.668Z,27.70
2023-04-30T23:56:37.237Z,27.70
2023-04-30T23:59:06.954Z,27.70
